sensor_id;sensor_type;location;lat;lon;timestamp;temperature;humidity
12839;DHT22;6486;51.034;5.262;2022-09-03T00:00:13;21.80;39.20
12839;DHT22;6486;51.034;5.262;2022-09-03T00:08:16;21.60;39.60
12839;DHT22;6486;51.034;5.262;2022-09-03T00:13:24;21.40;40.00
12839;DHT22;6486;51.034;5.262;2022-09-03T00:15:52;21.40;40.10
12839;DHT22;6486;51.034;5.262;2022-09-03T00:18:22;21.40;40.30
12839;DHT22;6486;51.034;5.262;2022-09-03T00:21:04;21.30;40.40
12839;DHT22;6486;51.034;5.262;2022-09-03T00:23:34;21.30;40.50
12839;DHT22;6486;51.034;5.262;2022-09-03T00:26:26;21.30;40.60
12839;DHT22;6486;51.034;5.262;2022-09-03T00:31:28;21.20;40.80
12839;DHT22;6486;51.034;5.262;2022-09-03T00:33:59;21.10;40.80
12839;DHT22;6486;51.034;5.262;2022-09-03T00:36:39;21.10;40.90
12839;DHT22;6486;51.034;5.262;2022-09-03T00:39:12;21.10;41.00
12839;DHT22;6486;51.034;5.262;2022-09-03T00:44:30;21.00;41.30
12839;DHT22;6486;51.034;5.262;2022-09-03T00:47:11;20.90;41.30
12839;DHT22;6486;51.034;5.262;2022-09-03T01:00:23;20.80;42.00
12839;DHT22;6486;51.034;5.262;2022-09-03T01:03:15;20.80;42.00
12839;DHT22;6486;51.034;5.262;2022-09-03T01:13:24;20.70;42.30
12839;DHT22;6486;51.034;5.262;2022-09-03T01:16:27;20.70;42.40
12839;DHT22;6486;51.034;5.262;2022-09-03T01:27:43;20.60;42.50
12839;DHT22;6486;51.034;5.262;2022-09-03T01:30:13;20.60;42.50
12839;DHT22;6486;51.034;5.262;2022-09-03T01:38:36;20.60;42.80
12839;DHT22;6486;51.034;5.262;2022-09-03T01:44:52;20.50;42.90
12839;DHT22;6486;51.034;5.262;2022-09-03T01:50:09;20.50;43.00
12839;DHT22;6486;51.034;5.262;2022-09-03T01:53:10;20.40;43.10
12839;DHT22;6486;51.034;5.262;2022-09-03T01:58:43;20.50;43.20
12839;DHT22;6486;51.034;5.262;2022-09-03T02:01:25;20.50;43.10
12839;DHT22;6486;51.034;5.262;2022-09-03T02:03:53;20.50;43.10
12839;DHT22;6486;51.034;5.262;2022-09-03T02:06:25;20.60;43.10
12839;DHT22;6486;51.034;5.262;2022-09-03T02:08:52;20.60;43.70
12839;DHT22;6486;51.034;5.262;2022-09-03T02:11:18;20.60;43.10
12839;DHT22;6486;51.034;5.262;2022-09-03T02:13:47;20.60;43.30
12839;DHT22;6486;51.034;5.262;2022-09-03T02:16:27;20.70;43.80
12839;DHT22;6486;51.034;5.262;2022-09-03T02:19:02;20.60;43.10
12839;DHT22;6486;51.034;5.262;2022-09-03T02:21:33;20.70;43.30
12839;DHT22;6486;51.034;5.262;2022-09-03T02:24:00;20.70;43.30
12839;DHT22;6486;51.034;5.262;2022-09-03T02:26:27;20.60;43.20
12839;DHT22;6486;51.034;5.262;2022-09-03T02:28:53;20.70;43.40
12839;DHT22;6486;51.034;5.262;2022-09-03T02:31:20;20.60;43.30
12839;DHT22;6486;51.034;5.262;2022-09-03T02:33:47;20.60;43.40
12839;DHT22;6486;51.034;5.262;2022-09-03T02:36:17;20.60;43.40
12839;DHT22;6486;51.034;5.262;2022-09-03T02:38:44;20.60;43.40
12839;DHT22;6486;51.034;5.262;2022-09-03T02:41:10;20.60;43.60
12839;DHT22;6486;51.034;5.262;2022-09-03T02:44:23;20.60;43.60
12839;DHT22;6486;51.034;5.262;2022-09-03T02:46:54;20.60;43.70
12839;DHT22;6486;51.034;5.262;2022-09-03T02:49:21;20.60;43.60
12839;DHT22;6486;51.034;5.262;2022-09-03T02:51:47;20.50;43.60
12839;DHT22;6486;51.034;5.262;2022-09-03T02:54:13;20.50;43.60
12839;DHT22;6486;51.034;5.262;2022-09-03T02:56:38;20.50;43.60
12839;DHT22;6486;51.034;5.262;2022-09-03T02:59:06;20.50;43.60
12839;DHT22;6486;51.034;5.262;2022-09-03T03:01:32;20.60;43.70
12839;DHT22;6486;51.034;5.262;2022-09-03T03:03:58;20.60;43.60
12839;DHT22;6486;51.034;5.262;2022-09-03T03:06:24;20.60;43.60
12839;DHT22;6486;51.034;5.262;2022-09-03T03:08:50;20.50;43.50
12839;DHT22;6486;51.034;5.262;2022-09-03T03:11:16;20.50;43.50
12839;DHT22;6486;51.034;5.262;2022-09-03T03:13:44;20.60;43.60
12839;DHT22;6486;51.034;5.262;2022-09-03T03:16:10;20.50;43.50
12839;DHT22;6486;51.034;5.262;2022-09-03T03:18:36;20.50;43.50
12839;DHT22;6486;51.034;5.262;2022-09-03T03:21:07;20.60;43.60
12839;DHT22;6486;51.034;5.262;2022-09-03T03:23:34;20.60;43.50
12839;DHT22;6486;51.034;5.262;2022-09-03T03:26:11;20.60;43.50
12839;DHT22;6486;51.034;5.262;2022-09-03T03:28:37;20.60;43.50
12839;DHT22;6486;51.034;5.262;2022-09-03T03:31:07;20.60;43.40
12839;DHT22;6486;51.034;5.262;2022-09-03T03:33:34;20.60;43.40
12839;DHT22;6486;51.034;5.262;2022-09-03T03:36:14;20.60;43.40
12839;DHT22;6486;51.034;5.262;2022-09-03T03:38:41;20.60;43.40
12839;DHT22;6486;51.034;5.262;2022-09-03T03:41:12;20.60;43.40
12839;DHT22;6486;51.034;5.262;2022-09-03T03:43:37;20.60;43.40
12839;DHT22;6486;51.034;5.262;2022-09-03T03:46:03;20.60;43.40
12839;DHT22;6486;51.034;5.262;2022-09-03T03:48:30;20.60;43.40
12839;DHT22;6486;51.034;5.262;2022-09-03T03:51:00;20.60;43.40
12839;DHT22;6486;51.034;5.262;2022-09-03T03:53:27;20.60;43.50
12839;DHT22;6486;51.034;5.262;2022-09-03T03:55:54;20.50;43.40
12839;DHT22;6486;51.034;5.262;2022-09-03T03:58:20;20.50;43.40
12839;DHT22;6486;51.034;5.262;2022-09-03T04:00:46;20.50;43.40
12839;DHT22;6486;51.034;5.262;2022-09-03T04:03:14;20.50;43.50
12839;DHT22;6486;51.034;5.262;2022-09-03T04:05:40;20.50;44.20
12839;DHT22;6486;51.034;5.262;2022-09-03T04:08:05;20.50;43.50
12839;DHT22;6486;51.034;5.262;2022-09-03T04:10:31;20.50;43.60
12839;DHT22;6486;51.034;5.262;2022-09-03T04:12:57;20.50;43.60
12839;DHT22;6486;51.034;5.262;2022-09-03T04:15:22;20.50;43.70
12839;DHT22;6486;51.034;5.262;2022-09-03T04:17:48;20.40;43.60
12839;DHT22;6486;51.034;5.262;2022-09-03T04:20:14;20.40;43.70
12839;DHT22;6486;51.034;5.262;2022-09-03T04:22:39;20.40;43.70
12839;DHT22;6486;51.034;5.262;2022-09-03T04:25:05;20.40;43.80
12839;DHT22;6486;51.034;5.262;2022-09-03T04:27:31;20.40;43.70
12839;DHT22;6486;51.034;5.262;2022-09-03T04:29:57;20.40;43.80
12839;DHT22;6486;51.034;5.262;2022-09-03T04:32:22;20.40;43.80
12839;DHT22;6486;51.034;5.262;2022-09-03T04:35:06;20.40;43.70
12839;DHT22;6486;51.034;5.262;2022-09-03T04:37:32;20.40;43.70
12839;DHT22;6486;51.034;5.262;2022-09-03T04:39:58;20.40;43.80
12839;DHT22;6486;51.034;5.262;2022-09-03T04:42:23;20.40;43.80
12839;DHT22;6486;51.034;5.262;2022-09-03T04:44:49;20.40;43.80
12839;DHT22;6486;51.034;5.262;2022-09-03T04:47:15;20.40;43.90
12839;DHT22;6486;51.034;5.262;2022-09-03T04:49:40;20.40;43.90
12839;DHT22;6486;51.034;5.262;2022-09-03T04:52:06;20.40;43.80
12839;DHT22;6486;51.034;5.262;2022-09-03T04:54:32;20.30;43.90
12839;DHT22;6486;51.034;5.262;2022-09-03T04:56:57;20.30;43.90
12839;DHT22;6486;51.034;5.262;2022-09-03T04:59:23;20.40;44.00
12839;DHT22;6486;51.034;5.262;2022-09-03T05:01:48;20.30;44.00
12839;DHT22;6486;51.034;5.262;2022-09-03T05:04:16;20.30;44.00
12839;DHT22;6486;51.034;5.262;2022-09-03T05:06:42;20.30;44.00
12839;DHT22;6486;51.034;5.262;2022-09-03T05:09:09;20.30;44.00
12839;DHT22;6486;51.034;5.262;2022-09-03T05:11:35;20.30;44.10
12839;DHT22;6486;51.034;5.262;2022-09-03T05:14:01;20.30;44.10
12839;DHT22;6486;51.034;5.262;2022-09-03T05:16:28;20.30;44.10
12839;DHT22;6486;51.034;5.262;2022-09-03T05:18:56;20.40;44.20
12839;DHT22;6486;51.034;5.262;2022-09-03T05:21:24;20.40;44.10
12839;DHT22;6486;51.034;5.262;2022-09-03T05:23:50;20.40;44.20
12839;DHT22;6486;51.034;5.262;2022-09-03T05:26:19;20.40;44.20
12839;DHT22;6486;51.034;5.262;2022-09-03T05:28:45;20.40;44.10
12839;DHT22;6486;51.034;5.262;2022-09-03T05:31:13;20.40;44.20
12839;DHT22;6486;51.034;5.262;2022-09-03T05:33:46;20.40;44.20
12839;DHT22;6486;51.034;5.262;2022-09-03T05:36:17;20.40;44.30
12839;DHT22;6486;51.034;5.262;2022-09-03T05:38:45;20.40;44.30
12839;DHT22;6486;51.034;5.262;2022-09-03T05:41:13;20.40;44.30
12839;DHT22;6486;51.034;5.262;2022-09-03T05:43:39;20.40;44.30
12839;DHT22;6486;51.034;5.262;2022-09-03T05:46:07;20.40;44.50
12839;DHT22;6486;51.034;5.262;2022-09-03T05:48:35;20.40;44.40
12839;DHT22;6486;51.034;5.262;2022-09-03T05:51:18;20.40;45.00
12839;DHT22;6486;51.034;5.262;2022-09-03T05:53:45;20.40;44.40
12839;DHT22;6486;51.034;5.262;2022-09-03T05:56:17;20.50;44.50
12839;DHT22;6486;51.034;5.262;2022-09-03T05:58:44;20.50;44.40
12839;DHT22;6486;51.034;5.262;2022-09-03T06:03:40;20.50;44.50
12839;DHT22;6486;51.034;5.262;2022-09-03T06:06:06;20.50;44.50
12839;DHT22;6486;51.034;5.262;2022-09-03T06:08:33;20.60;44.70
12839;DHT22;6486;51.034;5.262;2022-09-03T06:11:00;20.50;44.60
12839;DHT22;6486;51.034;5.262;2022-09-03T06:13:26;20.60;44.70
12839;DHT22;6486;51.034;5.262;2022-09-03T06:16:03;20.60;44.80
12839;DHT22;6486;51.034;5.262;2022-09-03T06:18:30;20.60;44.70
12839;DHT22;6486;51.034;5.262;2022-09-03T06:21:00;20.70;44.80
12839;DHT22;6486;51.034;5.262;2022-09-03T06:23:27;20.70;44.70
12839;DHT22;6486;51.034;5.262;2022-09-03T06:26:12;20.70;44.70
12839;DHT22;6486;51.034;5.262;2022-09-03T06:28:41;20.80;44.80
12839;DHT22;6486;51.034;5.262;2022-09-03T06:31:12;20.80;44.70
12839;DHT22;6486;51.034;5.262;2022-09-03T06:33:39;20.80;44.70
12839;DHT22;6486;51.034;5.262;2022-09-03T06:36:08;20.90;44.70
12839;DHT22;6486;51.034;5.262;2022-09-03T06:38:35;20.90;44.70
12839;DHT22;6486;51.034;5.262;2022-09-03T06:41:04;21.00;44.80
12839;DHT22;6486;51.034;5.262;2022-09-03T06:43:32;21.00;44.60
12839;DHT22;6486;51.034;5.262;2022-09-03T06:45:59;21.10;44.70
12839;DHT22;6486;51.034;5.262;2022-09-03T06:48:26;21.10;44.70
12839;DHT22;6486;51.034;5.262;2022-09-03T06:51:03;21.20;44.70
12839;DHT22;6486;51.034;5.262;2022-09-03T06:53:34;21.20;44.70
12839;DHT22;6486;51.034;5.262;2022-09-03T06:56:02;21.20;44.70
12839;DHT22;6486;51.034;5.262;2022-09-03T06:58:34;21.20;44.70
12839;DHT22;6486;51.034;5.262;2022-09-03T07:01:08;21.20;44.80
12839;DHT22;6486;51.034;5.262;2022-09-03T07:03:34;21.20;44.80
12839;DHT22;6486;51.034;5.262;2022-09-03T07:06:19;21.30;45.00
12839;DHT22;6486;51.034;5.262;2022-09-03T07:08:46;21.30;45.00
12839;DHT22;6486;51.034;5.262;2022-09-03T07:11:17;21.30;44.90
12839;DHT22;6486;51.034;5.262;2022-09-03T07:13:45;21.50;45.10
12839;DHT22;6486;51.034;5.262;2022-09-03T07:16:24;21.60;44.80
12839;DHT22;6486;51.034;5.262;2022-09-03T07:18:50;21.80;44.70
12839;DHT22;6486;51.034;5.262;2022-09-03T07:21:22;22.00;44.60
12839;DHT22;6486;51.034;5.262;2022-09-03T07:23:49;22.10;44.50
12839;DHT22;6486;51.034;5.262;2022-09-03T07:28:46;22.30;44.50
12839;DHT22;6486;51.034;5.262;2022-09-03T07:31:15;22.30;44.40
12839;DHT22;6486;51.034;5.262;2022-09-03T07:33:44;22.40;44.50
12839;DHT22;6486;51.034;5.262;2022-09-03T07:36:12;22.40;44.40
12839;DHT22;6486;51.034;5.262;2022-09-03T07:38:41;22.60;44.40
12839;DHT22;6486;51.034;5.262;2022-09-03T07:41:09;22.80;44.30
12839;DHT22;6486;51.034;5.262;2022-09-03T07:43:40;23.00;44.10
12839;DHT22;6486;51.034;5.262;2022-09-03T07:46:12;23.20;43.90
12839;DHT22;6486;51.034;5.262;2022-09-03T07:48:39;23.40;43.90
12839;DHT22;6486;51.034;5.262;2022-09-03T07:51:05;23.50;43.90
12839;DHT22;6486;51.034;5.262;2022-09-03T07:53:31;23.50;44.40
12839;DHT22;6486;51.034;5.262;2022-09-03T07:56:04;23.50;43.80
12839;DHT22;6486;51.034;5.262;2022-09-03T07:58:31;23.60;43.80
12839;DHT22;6486;51.034;5.262;2022-09-03T08:00:58;23.80;43.50
12839;DHT22;6486;51.034;5.262;2022-09-03T08:03:23;24.10;43.20
12839;DHT22;6486;51.034;5.262;2022-09-03T08:05:49;24.30;42.90
12839;DHT22;6486;51.034;5.262;2022-09-03T08:08:15;24.30;42.80
12839;DHT22;6486;51.034;5.262;2022-09-03T08:10:42;24.40;42.60
12839;DHT22;6486;51.034;5.262;2022-09-03T08:13:07;24.40;42.50
12839;DHT22;6486;51.034;5.262;2022-09-03T08:15:35;24.40;42.50
12839;DHT22;6486;51.034;5.262;2022-09-03T08:18:02;24.50;42.50
12839;DHT22;6486;51.034;5.262;2022-09-03T08:20:28;24.50;42.40
12839;DHT22;6486;51.034;5.262;2022-09-03T08:23:01;24.50;42.40
12839;DHT22;6486;51.034;5.262;2022-09-03T08:25:27;24.60;42.40
12839;DHT22;6486;51.034;5.262;2022-09-03T08:27:53;24.60;42.30
12839;DHT22;6486;51.034;5.262;2022-09-03T08:30:19;24.70;42.20
12839;DHT22;6486;51.034;5.262;2022-09-03T08:32:45;24.80;42.20
12839;DHT22;6486;51.034;5.262;2022-09-03T08:35:11;24.90;42.00
12839;DHT22;6486;51.034;5.262;2022-09-03T08:37:37;25.00;41.90
12839;DHT22;6486;51.034;5.262;2022-09-03T08:40:04;25.10;41.90
12839;DHT22;6486;51.034;5.262;2022-09-03T08:42:48;25.20;41.80
12839;DHT22;6486;51.034;5.262;2022-09-03T08:45:19;25.20;41.60
12839;DHT22;6486;51.034;5.262;2022-09-03T08:50:44;25.30;41.70
12839;DHT22;6486;51.034;5.262;2022-09-03T08:53:55;25.30;41.70
12839;DHT22;6486;51.034;5.262;2022-09-03T08:56:07;25.30;41.70
12839;DHT22;6486;51.034;5.262;2022-09-03T08:58:34;25.40;41.80
12839;DHT22;6486;51.034;5.262;2022-09-03T09:17:48;25.60;42.10
12839;DHT22;6486;51.034;5.262;2022-09-03T09:23:30;25.70;42.20
12839;DHT22;6486;51.034;5.262;2022-09-03T09:26:01;25.80;42.20
12839;DHT22;6486;51.034;5.262;2022-09-03T09:28:33;25.80;42.40
12839;DHT22;6486;51.034;5.262;2022-09-03T09:31:00;25.80;42.40
12839;DHT22;6486;51.034;5.262;2022-09-03T09:33:30;25.90;42.50
12839;DHT22;6486;51.034;5.262;2022-09-03T09:35:59;26.00;42.60
12839;DHT22;6486;51.034;5.262;2022-09-03T09:38:28;26.00;42.60
12839;DHT22;6486;51.034;5.262;2022-09-03T09:40:53;26.00;42.70
12839;DHT22;6486;51.034;5.262;2022-09-03T09:43:21;26.10;42.90
12839;DHT22;6486;51.034;5.262;2022-09-03T09:45:52;26.20;42.90
12839;DHT22;6486;51.034;5.262;2022-09-03T09:51:24;26.40;42.90
12839;DHT22;6486;51.034;5.262;2022-09-03T09:56:26;27.20;42.40
12839;DHT22;6486;51.034;5.262;2022-09-03T09:59:06;27.30;42.20
12839;DHT22;6486;51.034;5.262;2022-09-03T10:01:33;27.50;42.30
12839;DHT22;6486;51.034;5.262;2022-09-03T10:04:11;27.60;42.30
12839;DHT22;6486;51.034;5.262;2022-09-03T10:06:38;27.80;42.20
12839;DHT22;6486;51.034;5.262;2022-09-03T10:09:26;28.10;42.00
12839;DHT22;6486;51.034;5.262;2022-09-03T10:12:24;28.20;41.70
12839;DHT22;6486;51.034;5.262;2022-09-03T10:17:44;28.10;42.00
12839;DHT22;6486;51.034;5.262;2022-09-03T10:23:15;27.80;42.60
12839;DHT22;6486;51.034;5.262;2022-09-03T10:25:59;27.70;43.00
12839;DHT22;6486;51.034;5.262;2022-09-03T10:28:32;27.60;43.10
12839;DHT22;6486;51.034;5.262;2022-09-03T10:33:55;27.50;43.50
12839;DHT22;6486;51.034;5.262;2022-09-03T10:36:30;27.50;43.60
12839;DHT22;6486;51.034;5.262;2022-09-03T10:39:05;27.50;43.90
12839;DHT22;6486;51.034;5.262;2022-09-03T10:41:46;27.40;44.00
12839;DHT22;6486;51.034;5.262;2022-09-03T10:44:28;27.40;44.20
12839;DHT22;6486;51.034;5.262;2022-09-03T10:52:41;27.60;44.50
12839;DHT22;6486;51.034;5.262;2022-09-03T11:01:17;28.10;44.10
12839;DHT22;6486;51.034;5.262;2022-09-03T11:06:53;28.80;43.60
12839;DHT22;6486;51.034;5.262;2022-09-03T11:09:24;29.20;43.20
12839;DHT22;6486;51.034;5.262;2022-09-03T11:11:55;29.50;42.80
12839;DHT22;6486;51.034;5.262;2022-09-03T11:14:37;29.70;42.40
12839;DHT22;6486;51.034;5.262;2022-09-03T11:17:25;29.80;42.20
12839;DHT22;6486;51.034;5.262;2022-09-03T11:22:34;30.00;42.00
12839;DHT22;6486;51.034;5.262;2022-09-03T11:25:01;30.20;41.70
12839;DHT22;6486;51.034;5.262;2022-09-03T11:30:08;30.60;41.00
12839;DHT22;6486;51.034;5.262;2022-09-03T11:32:59;30.70;40.70
12839;DHT22;6486;51.034;5.262;2022-09-03T11:38:04;31.10;40.30
12839;DHT22;6486;51.034;5.262;2022-09-03T11:40:38;31.10;39.60
12839;DHT22;6486;51.034;5.262;2022-09-03T11:43:25;31.10;39.50
12839;DHT22;6486;51.034;5.262;2022-09-03T11:48:50;30.70;39.30
12839;DHT22;6486;51.034;5.262;2022-09-03T11:56:48;31.40;38.80
12839;DHT22;6486;51.034;5.262;2022-09-03T11:59:23;31.40;38.10
12839;DHT22;6486;51.034;5.262;2022-09-03T12:04:21;31.60;37.80
12839;DHT22;6486;51.034;5.262;2022-09-03T12:21:03;31.20;37.60
12839;DHT22;6486;51.034;5.262;2022-09-03T12:23:44;31.30;37.40
12839;DHT22;6486;51.034;5.262;2022-09-03T12:26:22;31.10;37.50
12839;DHT22;6486;51.034;5.262;2022-09-03T12:28:58;30.80;37.50
12839;DHT22;6486;51.034;5.262;2022-09-03T12:31:29;30.60;37.70
12839;DHT22;6486;51.034;5.262;2022-09-03T12:34:02;30.50;37.90
12839;DHT22;6486;51.034;5.262;2022-09-03T12:36:45;30.20;38.10
12839;DHT22;6486;51.034;5.262;2022-09-03T12:39:16;30.00;38.40
12839;DHT22;6486;51.034;5.262;2022-09-03T12:42:01;29.80;38.80
12839;DHT22;6486;51.034;5.262;2022-09-03T12:44:38;29.60;39.10
12839;DHT22;6486;51.034;5.262;2022-09-03T12:47:16;29.50;39.40
12839;DHT22;6486;51.034;5.262;2022-09-03T12:49:47;29.50;39.50
12839;DHT22;6486;51.034;5.262;2022-09-03T12:52:32;29.40;39.50
12839;DHT22;6486;51.034;5.262;2022-09-03T12:55:03;29.50;39.60
12839;DHT22;6486;51.034;5.262;2022-09-03T12:57:53;29.60;39.50
12839;DHT22;6486;51.034;5.262;2022-09-03T13:00:20;29.80;39.40
12839;DHT22;6486;51.034;5.262;2022-09-03T13:05:44;30.10;38.90
12839;DHT22;6486;51.034;5.262;2022-09-03T13:08:23;30.10;38.90
12839;DHT22;6486;51.034;5.262;2022-09-03T13:10:54;30.20;38.80
12839;DHT22;6486;51.034;5.262;2022-09-03T13:13:30;30.00;38.80
12839;DHT22;6486;51.034;5.262;2022-09-03T13:21:30;29.70;39.00
12839;DHT22;6486;51.034;5.262;2022-09-03T13:32:35;30.00;39.00
12839;DHT22;6486;51.034;5.262;2022-09-03T13:35:09;30.50;38.90
12839;DHT22;6486;51.034;5.262;2022-09-03T13:37:51;30.80;38.40
12839;DHT22;6486;51.034;5.262;2022-09-03T13:46:04;31.40;38.20
12839;DHT22;6486;51.034;5.262;2022-09-03T13:48:40;31.60;37.90
12839;DHT22;6486;51.034;5.262;2022-09-03T13:51:48;31.50;37.70
12839;DHT22;6486;51.034;5.262;2022-09-03T13:57:01;31.20;37.80
12839;DHT22;6486;51.034;5.262;2022-09-03T14:05:03;31.60;37.70
12839;DHT22;6486;51.034;5.262;2022-09-03T14:10:23;31.90;37.10
12839;DHT22;6486;51.034;5.262;2022-09-03T14:15:43;31.70;37.40
12839;DHT22;6486;51.034;5.262;2022-09-03T14:18:31;31.60;37.60
12839;DHT22;6486;51.034;5.262;2022-09-03T14:21:16;31.40;37.70
12839;DHT22;6486;51.034;5.262;2022-09-03T14:26:28;31.00;38.00
12839;DHT22;6486;51.034;5.262;2022-09-03T14:29:20;30.90;38.20
12839;DHT22;6486;51.034;5.262;2022-09-03T14:40:24;30.90;38.80
12839;DHT22;6486;51.034;5.262;2022-09-03T14:54:17;30.30;39.60
12839;DHT22;6486;51.034;5.262;2022-09-03T14:57:13;30.20;39.90
12839;DHT22;6486;51.034;5.262;2022-09-03T15:05:01;30.00;40.30
12839;DHT22;6486;51.034;5.262;2022-09-03T15:07:40;29.90;40.20
12839;DHT22;6486;51.034;5.262;2022-09-03T15:12:58;29.90;40.40
12839;DHT22;6486;51.034;5.262;2022-09-03T15:15:42;30.00;40.50
12839;DHT22;6486;51.034;5.262;2022-09-03T15:34:58;30.30;39.70
12839;DHT22;6486;51.034;5.262;2022-09-03T15:37:53;30.20;39.80
12839;DHT22;6486;51.034;5.262;2022-09-03T15:40:27;30.10;39.80
12839;DHT22;6486;51.034;5.262;2022-09-03T15:43:27;30.20;40.00
12839;DHT22;6486;51.034;5.262;2022-09-03T15:46:01;30.40;40.00
12839;DHT22;6486;51.034;5.262;2022-09-03T15:52:27;31.10;39.50
12839;DHT22;6486;51.034;5.262;2022-09-03T15:57:04;31.10;38.80
12839;DHT22;6486;51.034;5.262;2022-09-03T16:02:15;31.00;38.70
12839;DHT22;6486;51.034;5.262;2022-09-03T16:10:22;33.70;36.60
12839;DHT22;6486;51.034;5.262;2022-09-03T16:13:29;35.10;35.00
12839;DHT22;6486;51.034;5.262;2022-09-03T16:16:29;34.80;34.50
12839;DHT22;6486;51.034;5.262;2022-09-03T16:19:04;34.20;35.80
12839;DHT22;6486;51.034;5.262;2022-09-03T16:21:47;33.70;35.50
12839;DHT22;6486;51.034;5.262;2022-09-03T16:24:37;35.50;33.90
12839;DHT22;6486;51.034;5.262;2022-09-03T16:27:10;35.60;33.10
12839;DHT22;6486;51.034;5.262;2022-09-03T16:29:40;34.70;33.80
12839;DHT22;6486;51.034;5.262;2022-09-03T16:48:32;30.90;38.20
12839;DHT22;6486;51.034;5.262;2022-09-03T16:51:52;30.60;38.50
12839;DHT22;6486;51.034;5.262;2022-09-03T17:30:58;28.40;42.40
12839;DHT22;6486;51.034;5.262;2022-09-03T17:33:45;28.40;42.50
12839;DHT22;6486;51.034;5.262;2022-09-03T17:36:26;28.30;42.70
12839;DHT22;6486;51.034;5.262;2022-09-03T17:41:51;28.20;43.10
12839;DHT22;6486;51.034;5.262;2022-09-03T17:47:41;28.00;43.60
12839;DHT22;6486;51.034;5.262;2022-09-03T17:50:20;27.90;43.80
12839;DHT22;6486;51.034;5.262;2022-09-03T17:52:52;27.90;44.00
12839;DHT22;6486;51.034;5.262;2022-09-03T17:58:34;27.70;44.00
12839;DHT22;6486;51.034;5.262;2022-09-03T18:06:35;27.60;44.80
12839;DHT22;6486;51.034;5.262;2022-09-03T18:14:33;27.40;45.50
12839;DHT22;6486;51.034;5.262;2022-09-03T18:17:09;27.30;45.60
12839;DHT22;6486;51.034;5.262;2022-09-03T18:19:47;27.20;45.70
12839;DHT22;6486;51.034;5.262;2022-09-03T18:25:27;27.00;46.40
12839;DHT22;6486;51.034;5.262;2022-09-03T18:28:15;26.90;46.50
12839;DHT22;6486;51.034;5.262;2022-09-03T18:31:01;26.90;46.80
12839;DHT22;6486;51.034;5.262;2022-09-03T18:33:45;26.80;46.80
12839;DHT22;6486;51.034;5.262;2022-09-03T18:36:30;26.70;47.10
12839;DHT22;6486;51.034;5.262;2022-09-03T18:39:28;26.70;47.40
12839;DHT22;6486;51.034;5.262;2022-09-03T18:48:22;26.50;48.10
12839;DHT22;6486;51.034;5.262;2022-09-03T18:51:28;26.40;47.90
12839;DHT22;6486;51.034;5.262;2022-09-03T19:04:00;26.30;48.40
12839;DHT22;6486;51.034;5.262;2022-09-03T19:07:19;26.20;48.50
12839;DHT22;6486;51.034;5.262;2022-09-03T19:10:10;26.20;48.60
12839;DHT22;6486;51.034;5.262;2022-09-03T19:16:15;26.20;48.80
12839;DHT22;6486;51.034;5.262;2022-09-03T19:22:32;26.10;49.00
12839;DHT22;6486;51.034;5.262;2022-09-03T19:25:16;26.00;49.20
12839;DHT22;6486;51.034;5.262;2022-09-03T19:40:44;25.70;50.60
12839;DHT22;6486;51.034;5.262;2022-09-03T19:43:46;25.70;50.00
12839;DHT22;6486;51.034;5.262;2022-09-03T19:49:56;25.50;50.10
12839;DHT22;6486;51.034;5.262;2022-09-03T19:52:59;25.50;50.40
12839;DHT22;6486;51.034;5.262;2022-09-03T19:55:57;25.40;51.10
12839;DHT22;6486;51.034;5.262;2022-09-03T19:59:02;25.30;50.90
12839;DHT22;6486;51.034;5.262;2022-09-03T20:01:49;25.20;50.80
12839;DHT22;6486;51.034;5.262;2022-09-03T20:04:43;25.20;50.90
12839;DHT22;6486;51.034;5.262;2022-09-03T20:07:29;25.10;51.00
12839;DHT22;6486;51.034;5.262;2022-09-03T20:10:15;25.00;51.10
12839;DHT22;6486;51.034;5.262;2022-09-03T20:13:09;25.00;51.30
12839;DHT22;6486;51.034;5.262;2022-09-03T20:21:21;24.90;51.60
12839;DHT22;6486;51.034;5.262;2022-09-03T20:24:20;24.80;51.70
12839;DHT22;6486;51.034;5.262;2022-09-03T20:29:59;24.70;51.90
12839;DHT22;6486;51.034;5.262;2022-09-03T20:46:24;24.40;52.60
12839;DHT22;6486;51.034;5.262;2022-09-03T20:51:25;24.30;52.90
12839;DHT22;6486;51.034;5.262;2022-09-03T20:56:49;24.20;53.50
12839;DHT22;6486;51.034;5.262;2022-09-03T20:59:33;24.10;53.40
12839;DHT22;6486;51.034;5.262;2022-09-03T21:02:19;24.00;53.60
12839;DHT22;6486;51.034;5.262;2022-09-03T21:05:01;24.00;53.80
12839;DHT22;6486;51.034;5.262;2022-09-03T21:24:59;23.70;54.40
12839;DHT22;6486;51.034;5.262;2022-09-03T21:28:33;23.70;54.50
12839;DHT22;6486;51.034;5.262;2022-09-03T21:30:36;23.60;54.50
12839;DHT22;6486;51.034;5.262;2022-09-03T21:33:28;23.60;54.60
12839;DHT22;6486;51.034;5.262;2022-09-03T21:36:18;23.50;54.80
12839;DHT22;6486;51.034;5.262;2022-09-03T21:38:46;23.50;55.00
12839;DHT22;6486;51.034;5.262;2022-09-03T21:41:26;23.40;55.10
12839;DHT22;6486;51.034;5.262;2022-09-03T21:43:55;23.40;55.20
12839;DHT22;6486;51.034;5.262;2022-09-03T21:49:12;23.30;55.50
12839;DHT22;6486;51.034;5.262;2022-09-03T21:51:46;23.20;55.40
12839;DHT22;6486;51.034;5.262;2022-09-03T21:54:30;23.20;55.60
12839;DHT22;6486;51.034;5.262;2022-09-03T21:59:57;23.20;55.80
12839;DHT22;6486;51.034;5.262;2022-09-03T22:02:29;23.20;55.90
12839;DHT22;6486;51.034;5.262;2022-09-03T22:04:56;23.10;55.90
12839;DHT22;6486;51.034;5.262;2022-09-03T22:07:53;23.10;56.00
12839;DHT22;6486;51.034;5.262;2022-09-03T22:10:26;23.10;56.20
12839;DHT22;6486;51.034;5.262;2022-09-03T22:15:42;23.10;56.40
12839;DHT22;6486;51.034;5.262;2022-09-03T22:18:20;23.10;56.40
12839;DHT22;6486;51.034;5.262;2022-09-03T22:21:12;23.00;56.40
12839;DHT22;6486;51.034;5.262;2022-09-03T22:26:42;23.00;56.70
12839;DHT22;6486;51.034;5.262;2022-09-03T22:34:33;22.80;57.00
12839;DHT22;6486;51.034;5.262;2022-09-03T22:37:03;22.80;57.10
12839;DHT22;6486;51.034;5.262;2022-09-03T22:42:22;22.70;57.30
12839;DHT22;6486;51.034;5.262;2022-09-03T22:50:26;22.60;57.70
12839;DHT22;6486;51.034;5.262;2022-09-03T22:56:10;22.50;57.90
12839;DHT22;6486;51.034;5.262;2022-09-03T23:04:28;22.50;58.40
12839;DHT22;6486;51.034;5.262;2022-09-03T23:07:12;22.40;57.90
12839;DHT22;6486;51.034;5.262;2022-09-03T23:09:44;22.40;58.00
12839;DHT22;6486;51.034;5.262;2022-09-03T23:12:42;22.40;58.10
12839;DHT22;6486;51.034;5.262;2022-09-03T23:15:12;22.30;58.30
12839;DHT22;6486;51.034;5.262;2022-09-03T23:17:49;22.20;58.40
12839;DHT22;6486;51.034;5.262;2022-09-03T23:20:22;22.10;58.60
12839;DHT22;6486;51.034;5.262;2022-09-03T23:23:15;22.10;58.80
12839;DHT22;6486;51.034;5.262;2022-09-03T23:25:46;22.00;59.00
12839;DHT22;6486;51.034;5.262;2022-09-03T23:28:22;22.00;59.00
12839;DHT22;6486;51.034;5.262;2022-09-03T23:30:49;22.00;59.20
12839;DHT22;6486;51.034;5.262;2022-09-03T23:33:14;21.90;59.20
12839;DHT22;6486;51.034;5.262;2022-09-03T23:36:05;21.90;59.30
12839;DHT22;6486;51.034;5.262;2022-09-03T23:38:57;21.90;59.50
12839;DHT22;6486;51.034;5.262;2022-09-03T23:41:39;21.80;59.50
12839;DHT22;6486;51.034;5.262;2022-09-03T23:44:30;21.80;59.50
12839;DHT22;6486;51.034;5.262;2022-09-03T23:47:34;21.70;59.60